createdAt,value
2023-01-25T00:02:08.372Z,17.50
2023-01-25T00:04:35.119Z,15.02
2023-01-25T00:07:02.473Z,14.85
2023-01-25T00:09:29.114Z,15.38
2023-01-25T00:11:58.024Z,14.23
2023-01-25T00:14:25.148Z,15.27
2023-01-25T00:16:51.936Z,14.18
2023-01-25T00:19:18.838Z,14.48
2023-01-25T00:21:45.667Z,12.05
2023-01-25T00:24:14.413Z,10.43
2023-01-25T00:26:44.099Z,12.20
2023-01-25T00:29:14.311Z,11.50
2023-01-25T00:31:45.069Z,13.57
2023-01-25T00:36:51.789Z,15.13
2023-01-25T00:39:18.461Z,13.10
2023-01-25T00:41:45.514Z,12.45
2023-01-25T00:44:12.236Z,12.15
2023-01-25T00:46:39.859Z,13.13
2023-01-25T00:49:06.946Z,13.98
2023-01-25T00:51:33.806Z,15.77
2023-01-25T00:54:00.618Z,16.52
2023-01-25T00:56:27.658Z,17.60
2023-01-25T00:58:55.035Z,14.40
2023-01-25T01:01:21.782Z,15.93
2023-01-25T01:03:48.449Z,14.38
2023-01-25T01:06:15.125Z,17.25
2023-01-25T01:08:42.516Z,13.98
2023-01-25T01:11:12.687Z,16.55
2023-01-25T01:13:40.055Z,17.13
2023-01-25T01:16:11.821Z,15.95
2023-01-25T01:18:43.595Z,16.33
2023-01-25T01:21:12.077Z,16.35
2023-01-25T01:23:39.250Z,13.90
2023-01-25T01:26:09.688Z,14.05
2023-01-25T01:28:39.466Z,11.23
2023-01-25T01:31:11.356Z,14.57
2023-01-25T01:33:41.999Z,18.85
2023-01-25T01:36:14.329Z,16.00
2023-01-25T01:38:41.769Z,15.07
2023-01-25T01:41:10.004Z,13.77
2023-01-25T01:43:37.371Z,15.00
2023-01-25T01:46:15.526Z,14.10
2023-01-25T01:48:50.905Z,14.82
2023-01-25T01:51:32.997Z,15.70
2023-01-25T01:54:18.705Z,15.32
2023-01-25T01:56:54.527Z,17.50
2023-01-25T01:59:24.398Z,13.80
2023-01-25T02:01:51.548Z,14.70
2023-01-25T02:04:21.369Z,13.32
2023-01-25T02:06:58.300Z,18.45
2023-01-25T02:09:28.618Z,15.15
2023-01-25T02:11:57.494Z,15.80
2023-01-25T02:14:24.217Z,12.98
2023-01-25T02:16:50.907Z,15.30
2023-01-25T02:19:30.652Z,14.18
2023-01-25T02:21:59.047Z,14.02
2023-01-25T02:24:32.724Z,16.50
2023-01-25T02:26:59.892Z,14.90
2023-01-25T02:29:29.498Z,16.75
2023-01-25T02:32:02.952Z,13.27
2023-01-25T02:34:29.849Z,13.48
2023-01-25T02:36:56.969Z,13.32
2023-01-25T02:39:26.658Z,12.93
2023-01-25T02:41:53.887Z,15.18
2023-01-25T02:44:28.994Z,14.75
2023-01-25T02:46:56.793Z,17.27
2023-01-25T02:49:23.755Z,15.60
2023-01-25T02:51:55.974Z,15.25
2023-01-25T02:54:23.618Z,16.08
2023-01-25T02:56:50.864Z,14.30
2023-01-25T02:59:20.201Z,17.73
2023-01-25T03:01:51.651Z,15.75
2023-01-25T03:04:18.824Z,14.80
2023-01-25T03:06:47.400Z,13.48
2023-01-25T03:09:14.105Z,14.30
2023-01-25T03:11:45.302Z,17.27
2023-01-25T03:14:12.131Z,16.88
2023-01-25T03:16:39.216Z,12.80
2023-01-25T03:19:06.449Z,14.77
2023-01-25T03:21:33.364Z,12.88
2023-01-25T03:24:03.291Z,11.52
2023-01-25T03:26:56.567Z,15.00
2023-01-25T03:29:30.959Z,13.38
2023-01-25T03:31:58.436Z,12.55
2023-01-25T03:34:25.559Z,14.45
2023-01-25T03:36:53.254Z,11.63
2023-01-25T03:39:19.985Z,13.00
2023-01-25T03:41:46.741Z,11.63
2023-01-25T03:44:13.839Z,11.88
2023-01-25T03:46:42.790Z,11.82
2023-01-25T03:49:11.128Z,11.50
2023-01-25T03:51:38.249Z,10.80
2023-01-25T03:54:05.327Z,13.43
2023-01-25T03:56:34.715Z,13.65
2023-01-25T03:59:07.580Z,9.65
2023-01-25T04:01:35.005Z,11.30
2023-01-25T04:04:03.145Z,10.07
2023-01-25T04:06:30.112Z,11.43
2023-01-25T04:08:57.520Z,11.05
2023-01-25T04:11:26.409Z,9.88
2023-01-25T04:13:53.669Z,9.90
2023-01-25T04:16:22.666Z,10.52
2023-01-25T04:19:15.427Z,11.02
2023-01-25T04:21:42.448Z,11.02
2023-01-25T04:24:09.421Z,13.32
2023-01-25T04:26:39.413Z,11.10
2023-01-25T04:29:06.702Z,12.45
2023-01-25T04:31:34.174Z,12.50
2023-01-25T04:34:01.169Z,10.05
2023-01-25T04:36:29.417Z,11.65
2023-01-25T04:38:56.156Z,12.57
2023-01-25T04:41:26.952Z,11.57
2023-01-25T04:43:54.801Z,11.68
2023-01-25T04:46:22.141Z,13.40
2023-01-25T04:48:48.990Z,13.60
2023-01-25T04:51:16.929Z,13.52
2023-01-25T04:53:43.617Z,14.35
2023-01-25T04:56:10.425Z,11.98
2023-01-25T04:58:48.600Z,12.43
2023-01-25T05:01:15.374Z,13.07
2023-01-25T05:03:42.242Z,14.00
2023-01-25T05:06:18.090Z,11.25
2023-01-25T05:08:44.853Z,13.32
2023-01-25T05:11:12.594Z,14.68
2023-01-25T05:14:14.686Z,13.68
2023-01-25T05:16:43.984Z,12.95
2023-01-25T05:19:10.843Z,13.20
2023-01-25T05:22:00.690Z,11.13
2023-01-25T05:24:36.347Z,13.50
2023-01-25T05:27:07.973Z,12.13
2023-01-25T05:29:55.287Z,15.18
2023-01-25T05:32:43.376Z,11.88
2023-01-25T05:35:10.384Z,14.90
2023-01-25T05:37:38.632Z,14.20
2023-01-25T05:40:08.706Z,12.43
2023-01-25T05:42:38.076Z,12.85
2023-01-25T05:45:09.537Z,12.75
2023-01-25T05:47:39.078Z,12.63
2023-01-25T05:50:08.737Z,13.30
2023-01-25T05:53:03.375Z,13.48
2023-01-25T05:55:30.425Z,12.40
2023-01-25T06:00:29.383Z,13.05
2023-01-25T06:02:59.931Z,11.95
2023-01-25T06:05:26.823Z,12.57
2023-01-25T06:07:54.851Z,17.27
2023-01-25T06:10:24.266Z,12.43
2023-01-25T06:12:51.525Z,9.88
2023-01-25T06:15:18.168Z,9.93
2023-01-25T06:17:44.975Z,12.50
2023-01-25T06:20:25.538Z,14.27
2023-01-25T06:23:05.107Z,10.68
2023-01-25T06:25:31.794Z,11.18
2023-01-25T06:27:58.534Z,11.32
2023-01-25T06:30:25.265Z,12.65
2023-01-25T06:32:51.966Z,11.25
2023-01-25T06:35:19.793Z,10.60
2023-01-25T06:37:46.779Z,9.30
2023-01-25T06:40:13.513Z,10.85
2023-01-25T06:42:40.329Z,12.38
2023-01-25T06:45:07.968Z,12.73
2023-01-25T06:47:35.113Z,13.32
2023-01-25T06:50:01.849Z,12.80
2023-01-25T06:52:28.535Z,13.25
2023-01-25T06:54:55.270Z,12.15
2023-01-25T06:57:22.056Z,12.57
2023-01-25T06:59:48.694Z,11.75
2023-01-25T07:02:16.073Z,12.20
2023-01-25T07:04:42.905Z,12.63
2023-01-25T07:07:10.133Z,12.77
2023-01-25T07:09:37.230Z,13.00
2023-01-25T07:12:06.929Z,12.18
2023-01-25T07:14:33.786Z,12.35
2023-01-25T07:17:02.862Z,13.20
2023-01-25T07:19:30.400Z,11.57
2023-01-25T07:21:57.440Z,11.80
2023-01-25T07:24:27.385Z,13.40
2023-01-25T07:26:54.123Z,11.98
2023-01-25T07:29:22.107Z,13.75
2023-01-25T07:31:48.948Z,11.73
2023-01-25T07:34:15.695Z,12.07
2023-01-25T07:36:43.962Z,12.00
2023-01-25T07:39:11.787Z,11.70
2023-01-25T07:41:40.321Z,13.43
2023-01-25T07:44:11.991Z,13.05
2023-01-25T07:46:43.562Z,14.05
2023-01-25T07:49:10.232Z,13.15
2023-01-25T07:51:36.921Z,12.32
2023-01-25T07:54:04.952Z,11.93
2023-01-25T07:56:37.906Z,11.23
2023-01-25T07:59:04.957Z,12.93
2023-01-25T08:01:34.639Z,10.90
2023-01-25T08:04:02.693Z,12.18
2023-01-25T08:06:34.595Z,14.50
2023-01-25T08:09:04.798Z,11.60
2023-01-25T08:11:32.834Z,11.32
2023-01-25T08:14:01.987Z,13.60
2023-01-25T08:16:30.251Z,11.35
2023-01-25T08:18:59.556Z,10.20
2023-01-25T08:21:30.183Z,11.90
2023-01-25T08:24:01.954Z,9.65
2023-01-25T08:26:29.222Z,12.65
2023-01-25T08:28:56.410Z,12.90
2023-01-25T08:31:26.308Z,12.57
2023-01-25T08:33:53.545Z,13.15
2023-01-25T08:36:21.060Z,12.57
2023-01-25T08:38:48.606Z,12.13
2023-01-25T08:41:17.819Z,11.38
2023-01-25T08:43:45.998Z,17.27
2023-01-25T08:46:14.543Z,11.75
2023-01-25T08:48:41.296Z,12.10
2023-01-25T08:51:09.538Z,14.02
2023-01-25T08:53:36.198Z,12.40
2023-01-25T08:56:07.925Z,13.63
2023-01-25T08:58:34.791Z,13.18
2023-01-25T09:01:04.430Z,12.65
2023-01-25T09:03:31.785Z,11.02
2023-01-25T09:05:58.709Z,11.40
2023-01-25T09:08:25.381Z,11.77
2023-01-25T09:10:52.090Z,11.95
2023-01-25T09:13:18.843Z,13.98
2023-01-25T09:15:45.715Z,10.10
2023-01-25T09:18:12.722Z,17.13
2023-01-25T09:20:40.356Z,14.98
2023-01-25T09:23:07.378Z,14.63
2023-01-25T09:25:35.767Z,11.48
2023-01-25T09:28:03.077Z,19.58
2023-01-25T09:30:44.934Z,24.92
2023-01-25T09:35:50.903Z,26.35
2023-01-25T09:38:17.580Z,18.27
2023-01-25T09:40:55.275Z,13.38
2023-01-25T09:43:43.658Z,12.80
2023-01-25T09:46:30.429Z,12.02
2023-01-25T09:49:26.172Z,12.38
2023-01-25T09:52:02.113Z,12.13
2023-01-25T09:54:42.284Z,12.40
2023-01-25T09:57:33.605Z,12.40
2023-01-25T10:00:07.193Z,11.95
2023-01-25T10:03:06.020Z,11.43
2023-01-25T10:05:41.226Z,11.93
2023-01-25T10:08:25.940Z,15.98
2023-01-25T10:11:00.234Z,13.52
2023-01-25T10:13:31.887Z,13.57
2023-01-25T10:16:06.384Z,16.77
2023-01-25T10:18:47.958Z,13.25
2023-01-25T10:21:23.676Z,12.20
2023-01-25T10:24:08.750Z,13.38
2023-01-25T10:26:38.783Z,14.00
2023-01-25T10:29:14.960Z,11.93
2023-01-25T10:31:46.773Z,18.27
2023-01-25T10:34:24.415Z,15.35
2023-01-25T10:36:56.375Z,13.57
2023-01-25T10:39:23.948Z,11.40
2023-01-25T10:41:58.157Z,17.10
2023-01-25T10:44:29.122Z,14.43
2023-01-25T10:47:17.111Z,13.68
2023-01-25T10:49:48.298Z,15.43
2023-01-25T10:52:21.507Z,13.30
2023-01-25T10:55:01.744Z,13.77
2023-01-25T10:57:30.368Z,13.20
2023-01-25T10:59:57.498Z,16.02
2023-01-25T11:02:36.245Z,13.77
2023-01-25T11:05:33.738Z,15.13
2023-01-25T11:08:24.369Z,13.93
2023-01-25T11:10:52.593Z,14.40
2023-01-25T11:13:22.947Z,14.13
2023-01-25T11:15:59.686Z,12.88
2023-01-25T11:18:31.653Z,11.45
2023-01-25T11:21:12.326Z,13.02
2023-01-25T11:23:38.975Z,15.17
2023-01-25T11:26:11.361Z,13.40
2023-01-25T11:28:38.039Z,13.07
2023-01-25T11:31:11.411Z,13.07
2023-01-25T11:33:38.898Z,13.05
2023-01-25T11:36:17.711Z,14.68
2023-01-25T11:39:15.651Z,11.82
2023-01-25T11:41:59.233Z,13.43
2023-01-25T11:44:57.700Z,11.93
2023-01-25T11:47:44.615Z,12.57
2023-01-25T11:50:19.900Z,15.10
2023-01-25T11:52:58.293Z,17.25
2023-01-25T11:56:13.069Z,18.88
2023-01-25T11:59:06.916Z,17.50
2023-01-25T12:01:59.911Z,13.98
2023-01-25T12:05:09.681Z,28.73
2023-01-25T12:08:09.180Z,14.27
2023-01-25T12:10:46.925Z,16.45
2023-01-25T12:13:31.547Z,14.80
2023-01-25T12:16:13.398Z,13.05
2023-01-25T12:18:45.752Z,12.15
2023-01-25T12:21:30.173Z,11.07
2023-01-25T12:24:04.484Z,13.50
2023-01-25T12:26:48.662Z,14.95
2023-01-25T12:29:27.421Z,13.35
2023-01-25T12:32:32.106Z,13.30
2023-01-25T12:35:35.915Z,14.93
2023-01-25T12:38:14.120Z,13.85
2023-01-25T12:40:45.660Z,14.88
2023-01-25T12:43:24.634Z,19.60
2023-01-25T12:45:52.013Z,17.05
2023-01-25T12:48:33.139Z,13.27
2023-01-25T12:51:00.255Z,12.95
2023-01-25T12:53:37.361Z,13.00
2023-01-25T12:56:08.746Z,11.75
2023-01-25T13:01:33.935Z,14.23
2023-01-25T13:04:22.103Z,15.77
2023-01-25T13:06:57.456Z,18.75
2023-01-25T13:09:53.385Z,18.67
2023-01-25T13:12:20.889Z,15.98
2023-01-25T13:14:47.667Z,15.77
2023-01-25T13:17:23.369Z,12.65
2023-01-25T13:19:51.582Z,16.00
2023-01-25T13:22:43.071Z,13.82
2023-01-25T13:25:15.921Z,14.98
2023-01-25T13:27:42.698Z,15.50
2023-01-25T13:30:30.430Z,13.32
2023-01-25T13:33:03.745Z,14.20
2023-01-25T13:35:42.305Z,16.33
2023-01-25T13:38:08.886Z,16.08
2023-01-25T13:40:37.810Z,20.27
2023-01-25T13:43:17.743Z,16.80
2023-01-25T13:45:47.016Z,16.40
2023-01-25T13:48:19.147Z,15.63
2023-01-25T13:50:50.402Z,16.73
2023-01-25T13:53:16.988Z,14.43
2023-01-25T13:55:52.659Z,18.10
2023-01-25T13:58:32.337Z,13.07
2023-01-25T14:01:06.654Z,15.20
2023-01-25T14:03:42.935Z,14.65
2023-01-25T14:06:17.401Z,16.42
2023-01-25T14:08:46.185Z,16.30
2023-01-25T14:11:25.666Z,15.13
2023-01-25T14:14:20.908Z,17.92
2023-01-25T14:17:09.971Z,16.90
2023-01-25T14:19:41.759Z,15.75
2023-01-25T14:22:28.878Z,13.43
2023-01-25T14:25:11.276Z,14.30
2023-01-25T14:27:44.203Z,12.80
2023-01-25T14:30:24.561Z,14.05
2023-01-25T14:32:53.991Z,18.27
2023-01-25T14:35:54.558Z,14.60
2023-01-25T14:38:33.574Z,15.70
2023-01-25T14:41:29.205Z,16.10
2023-01-25T14:43:59.270Z,18.63
2023-01-25T14:46:31.470Z,17.05
2023-01-25T14:49:13.480Z,19.55
2023-01-25T14:51:53.752Z,20.02
2023-01-25T14:54:29.453Z,15.73
2023-01-25T14:57:04.576Z,16.67
2023-01-25T14:59:35.128Z,20.55
2023-01-25T15:02:28.162Z,24.67
2023-01-25T15:05:10.929Z,19.70
2023-01-25T15:07:46.239Z,15.73
2023-01-25T15:12:58.495Z,14.52
2023-01-25T15:15:34.962Z,12.38
2023-01-25T15:18:03.297Z,14.57
2023-01-25T15:20:30.030Z,16.75
2023-01-25T15:22:59.360Z,16.02
2023-01-25T15:25:26.097Z,16.48
2023-01-25T15:27:52.785Z,18.10
2023-01-25T15:30:19.544Z,18.17
2023-01-25T15:32:46.876Z,17.55
2023-01-25T15:35:15.878Z,16.30
2023-01-25T15:37:42.576Z,16.00
2023-01-25T15:40:10.993Z,16.52
2023-01-25T15:42:38.125Z,15.75
2023-01-25T15:45:06.956Z,16.50
2023-01-25T15:47:33.672Z,16.95
2023-01-25T15:50:00.445Z,16.70
2023-01-25T15:52:28.231Z,17.05
2023-01-25T15:55:01.521Z,14.93
2023-01-25T15:57:32.418Z,14.85
2023-01-25T16:00:01.876Z,17.35
2023-01-25T16:02:31.298Z,17.90
2023-01-25T16:04:58.027Z,17.85
2023-01-25T16:07:29.735Z,17.08
2023-01-25T16:09:56.455Z,20.45
2023-01-25T16:12:25.329Z,20.90
2023-01-25T16:14:51.986Z,19.10
2023-01-25T16:17:20.686Z,20.13
2023-01-25T16:23:12.361Z,17.13
2023-01-25T16:25:44.504Z,16.38
2023-01-25T16:28:15.098Z,16.15
2023-01-25T16:30:44.472Z,16.80
2023-01-25T16:33:11.727Z,18.85
2023-01-25T16:35:41.410Z,18.50
2023-01-25T16:38:11.350Z,18.23
2023-01-25T16:40:39.767Z,18.15
2023-01-25T16:43:06.586Z,17.73
2023-01-25T16:45:33.364Z,17.33
2023-01-25T16:48:01.791Z,14.77
2023-01-25T16:50:28.632Z,15.07
2023-01-25T16:52:56.250Z,17.15
2023-01-25T16:55:23.100Z,15.57
2023-01-25T16:57:51.041Z,23.27
2023-01-25T17:00:18.103Z,21.30
2023-01-25T17:02:58.207Z,22.50
2023-01-25T17:05:29.185Z,25.80
2023-01-25T17:07:56.299Z,25.02
2023-01-25T17:10:23.771Z,25.80
2023-01-25T17:12:51.322Z,23.48
2023-01-25T17:15:20.171Z,25.65
2023-01-25T17:17:46.814Z,27.60
2023-01-25T17:20:13.479Z,22.88
2023-01-25T17:22:42.557Z,21.17
2023-01-25T17:25:09.244Z,27.40
2023-01-25T17:27:35.907Z,31.40
2023-01-25T17:30:04.223Z,27.67
2023-01-25T17:32:30.973Z,24.98
2023-01-25T17:34:59.208Z,22.77
2023-01-25T17:37:25.971Z,22.27
2023-01-25T17:39:52.940Z,27.55
2023-01-25T17:42:19.693Z,26.38
2023-01-25T17:44:46.387Z,23.95
2023-01-25T17:47:13.073Z,24.45
2023-01-25T17:49:39.776Z,26.25
2023-01-25T17:52:06.474Z,22.23
2023-01-25T17:54:33.216Z,21.55
2023-01-25T17:56:59.996Z,26.55
2023-01-25T17:59:26.709Z,24.60
2023-01-25T18:01:53.535Z,19.58
2023-01-25T18:04:20.650Z,20.80
2023-01-25T18:06:47.700Z,19.67
2023-01-25T18:09:14.438Z,21.02
2023-01-25T18:11:41.194Z,21.92
2023-01-25T18:14:12.670Z,21.48
2023-01-25T18:16:41.058Z,18.45
2023-01-25T18:19:08.964Z,27.75
2023-01-25T18:21:36.525Z,27.10
2023-01-25T18:24:27.222Z,25.85
2023-01-25T18:27:05.873Z,25.30
2023-01-25T18:29:46.526Z,34.63
2023-01-25T18:32:14.307Z,34.90
2023-01-25T18:34:41.152Z,37.13
2023-01-25T18:37:18.815Z,28.55
2023-01-25T18:39:49.174Z,32.15
2023-01-25T18:42:15.917Z,29.05
2023-01-25T18:44:45.372Z,26.73
2023-01-25T18:47:13.927Z,57.45
2023-01-25T18:49:41.579Z,72.70
2023-01-25T18:52:11.708Z,36.15
2023-01-25T18:54:38.861Z,30.00
2023-01-25T18:57:06.888Z,105.20
2023-01-25T18:59:33.572Z,43.58
2023-01-25T19:02:00.394Z,34.45
2023-01-25T19:04:27.672Z,24.52
2023-01-25T19:06:57.586Z,27.25
2023-01-25T19:09:25.501Z,26.75
2023-01-25T19:11:52.204Z,25.85
2023-01-25T19:14:19.094Z,31.88
2023-01-25T19:16:46.395Z,26.90
2023-01-25T19:19:13.399Z,27.20
2023-01-25T19:21:40.829Z,26.27
2023-01-25T19:24:12.166Z,28.38
2023-01-25T19:26:39.226Z,28.48
2023-01-25T19:29:06.415Z,27.70
2023-01-25T19:31:33.838Z,27.23
2023-01-25T19:34:03.237Z,25.17
2023-01-25T19:36:31.751Z,28.90
2023-01-25T19:38:58.813Z,32.33
2023-01-25T19:41:27.973Z,27.48
2023-01-25T19:43:59.459Z,29.35
2023-01-25T19:48:54.809Z,28.05
2023-01-25T19:51:27.478Z,24.95
2023-01-25T19:53:59.940Z,27.63
2023-01-25T19:56:32.896Z,28.85
2023-01-25T19:58:59.644Z,25.67
2023-01-25T20:01:29.291Z,29.02
2023-01-25T20:03:58.074Z,29.52
2023-01-25T20:06:26.378Z,27.08
2023-01-25T20:08:53.941Z,25.77
2023-01-25T20:11:21.744Z,30.00
2023-01-25T20:13:50.533Z,27.77
2023-01-25T20:16:18.330Z,28.58
2023-01-25T20:18:46.431Z,25.73
2023-01-25T20:21:15.503Z,29.10
2023-01-25T20:23:44.064Z,29.95
2023-01-25T20:26:16.009Z,23.85
2023-01-25T20:28:44.703Z,29.33
2023-01-25T20:31:17.419Z,31.02
2023-01-25T20:33:44.402Z,28.88
2023-01-25T20:36:11.108Z,33.47
2023-01-25T20:38:37.781Z,28.83
2023-01-25T20:41:07.092Z,24.75
2023-01-25T20:43:34.075Z,32.45
2023-01-25T20:46:02.064Z,31.98
2023-01-25T20:48:36.306Z,35.00
2023-01-25T20:51:05.083Z,27.17
2023-01-25T20:53:33.624Z,27.75
2023-01-25T20:59:09.179Z,26.77
2023-01-25T21:01:38.752Z,26.67
2023-01-25T21:04:07.974Z,25.88
2023-01-25T21:06:35.474Z,26.77
2023-01-25T21:09:03.281Z,30.63
2023-01-25T21:11:31.004Z,28.27
2023-01-25T21:13:59.553Z,23.58
2023-01-25T21:16:26.372Z,28.02
2023-01-25T21:18:55.342Z,26.50
2023-01-25T21:21:23.573Z,23.42
2023-01-25T21:23:50.734Z,23.27
2023-01-25T21:26:20.085Z,24.05
2023-01-25T21:28:47.641Z,18.23
2023-01-25T21:31:28.962Z,27.42
2023-01-25T21:33:56.018Z,26.25
2023-01-25T21:36:23.376Z,26.98
2023-01-25T21:38:52.007Z,21.83
2023-01-25T21:41:26.405Z,22.65
2023-01-25T21:44:13.635Z,22.30
2023-01-25T21:46:41.061Z,24.70
2023-01-25T21:49:28.549Z,25.17
2023-01-25T21:51:59.187Z,23.90
2023-01-25T21:54:28.342Z,24.05
2023-01-25T21:56:56.838Z,23.63
2023-01-25T21:59:24.344Z,19.70
2023-01-25T22:01:52.412Z,23.27
2023-01-25T22:04:20.687Z,23.90
2023-01-25T22:06:52.220Z,22.48
2023-01-25T22:09:19.043Z,22.67
2023-01-25T22:11:46.004Z,25.27
2023-01-25T22:14:13.878Z,25.27
2023-01-25T22:16:40.680Z,23.77
2023-01-25T22:19:07.481Z,23.05
2023-01-25T22:21:34.337Z,21.88
2023-01-25T22:24:03.599Z,26.92
2023-01-25T22:26:39.619Z,24.25
2023-01-25T22:29:06.306Z,21.95
2023-01-25T22:31:33.228Z,23.30
2023-01-25T22:34:00.056Z,28.27
2023-01-25T22:36:29.621Z,20.98
2023-01-25T22:38:56.471Z,28.95
2023-01-25T22:41:28.987Z,23.98
2023-01-25T22:43:55.682Z,26.67
2023-01-25T22:46:25.313Z,23.20
2023-01-25T22:48:52.502Z,26.33
2023-01-25T22:51:21.064Z,25.95
